Birger Jarl — SIAU — position and weather

sailwx.info

Track history (hours):
 
Tides and Currents Weather Stations Pressure Air Temp Water Temp Dewpoint Dewpoint Depression Visibility Wind Speed Wind Dir Waves Ship Positions

Birger Jarl

Last reported at 2016-Dec-03 06:33 UTC. Time now 2016-Dec-03 06:50 UTC.
Position N 59°19' E 018°05'.

Length 92 m; draft 5.1 m.

Type: Passenger vessel. MMSI: 265878000.

Date/timePositionNaut miles runAvg speedWind from/ knotsBaromVisibWave heightAir tempDewpointWater temp
2016-Dec-03 06:33N 59°19' E 018°05'0 0.0
2016-Dec-03 05:30N 59°19' E 018°05'0 0.0
2016-Dec-03 04:33N 59°19' E 018°05'0 0.0
2016-Dec-03 03:33N 59°19' E 018°05'0 0.0
2016-Dec-03 02:33N 59°19' E 018°05'0 0.0
2016-Dec-03 01:33N 59°19' E 018°05'0 0.0
2016-Dec-03 00:30N 59°19' E 018°05'0 0.0
2016-Dec-02 23:33N 59°19' E 018°05'0 0.0
2016-Dec-02 22:33N 59°19' E 018°05'0 0.0
2016-Dec-02 21:33N 59°19' E 018°05'0 0.0
2016-Dec-02 20:33N 59°19' E 018°05'0 0.0
2016-Dec-02 19:33N 59°19' E 018°05'0 0.0
2016-Dec-02 18:33N 59°19' E 018°05'0 0.0
2016-Dec-02 17:33N 59°19' E 018°05'0 0.0
2016-Dec-02 16:33N 59°19' E 018°05'0 0.0
2016-Dec-02 15:33N 59°19' E 018°05'0 0.0
2016-Dec-02 14:33N 59°19' E 018°05'0 0.0
2016-Dec-02 13:33N 59°19' E 018°05'1 1.1
2016-Dec-02 12:34N 59°19' E 018°07'0 0.4
2016-Dec-02 11:34N 59°19' E 018°08'1 1.5
2016-Dec-02 10:33N 59°19' E 018°05'0 0.0
2016-Dec-02 09:32N 59°19' E 018°05'0 0.0
2016-Dec-02 08:32N 59°19' E 018°05'0 0.0
2016-Dec-02 07:29N 59°19' E 018°05'0 0.0
2016-Dec-02 06:32N 59°19' E 018°05'0 0.0
2016-Dec-02 05:32N 59°19' E 018°05'0 0.0
2016-Dec-02 04:32N 59°19' E 018°05'0 0.0
2016-Dec-02 03:32N 59°19' E 018°05'0 0.0
2016-Dec-02 02:32N 59°19' E 018°05'0 0.0
2016-Dec-02 01:32N 59°19' E 018°05'0 0.0
2016-Dec-02 00:32N 59°19' E 018°05'0 0.0
2016-Dec-01 23:32N 59°19' E 018°05'0 0.0
2016-Dec-01 22:32N 59°19' E 018°05'0 0.0
2016-Dec-01 21:32N 59°19' E 018°05'0 0.0
2016-Dec-01 20:32N 59°19' E 018°05'0 0.0
2016-Dec-01 19:32N 59°19' E 018°05'0 0.0
2016-Dec-01 18:32N 59°19' E 018°05'0 0.0
2016-Dec-01 17:32N 59°19' E 018°05'0 0.0
2016-Dec-01 16:32N 59°19' E 018°05'0 0.0
2016-Dec-01 15:32N 59°19' E 018°05'0 0.0
2016-Dec-01 14:32N 59°19' E 018°05'0 0.0
2016-Dec-01 13:32N 59°19' E 018°05'0 0.2
2016-Dec-01 12:33N 59°19' E 018°05'2 2.1
2016-Dec-01 11:33N 59°19' E 018°09'2 2.3
2016-Dec-01 10:34N 59°19' E 018°05'0 0.0
2016-Dec-01 09:34N 59°19' E 018°05'0 0.0
2016-Dec-01 08:33N 59°19' E 018°05'0 0.0
2016-Dec-01 07:33N 59°19' E 018°05'0 0.0
2016-Dec-01 06:33N 59°19' E 018°05'0 0.0
2016-Dec-01 05:33N 59°19' E 018°05'0 0.0
2016-Dec-01 04:33N 59°19' E 018°05'0 0.0
2016-Dec-01 03:33N 59°19' E 018°05'0 0.0
2016-Dec-01 02:33N 59°19' E 018°05'0 0.0
2016-Dec-01 01:33N 59°19' E 018°05'0 0.0
2016-Dec-01 00:33N 59°19' E 018°05'0 0.0
2016-Nov-30 23:33N 59°19' E 018°05'0 0.0
2016-Nov-30 22:33N 59°19' E 018°05'0 0.0
2016-Nov-30 21:33N 59°19' E 018°05'0 0.0
2016-Nov-30 20:33N 59°19' E 018°05'0 0.0
2016-Nov-30 19:33N 59°19' E 018°05'0 0.0
2016-Nov-30 18:33N 59°19' E 018°05'0 0.0
2016-Nov-30 17:33N 59°19' E 018°05'0 0.0
2016-Nov-30 16:33N 59°19' E 018°05'0 0.0
2016-Nov-30 15:33N 59°19' E 018°05'0 0.0
2016-Nov-30 14:33N 59°19' E 018°05'0 0.0
2016-Nov-30 13:33N 59°19' E 018°05'0 0.1
2016-Nov-30 12:33N 59°19' E 018°05'3 2.7
2016-Nov-30 11:33N 59°19' E 018°10'3 2.8
2016-Nov-30 10:33N 59°19' E 018°05'0 0.0
2016-Nov-30 09:31N 59°19' E 018°05'0 0.0
2016-Nov-30 08:31N 59°19' E 018°05'0 0.0
2016-Nov-30 07:28N 59°19' E 018°05'0 0.0
2016-Nov-30 06:31N 59°19' E 018°05'0 0.0
2016-Nov-30 05:31N 59°19' E 018°05'0 0.0
2016-Nov-30 04:31N 59°19' E 018°05'0 0.0
2016-Nov-30 03:28N 59°19' E 018°05'0 0.0
2016-Nov-30 02:28N 59°19' E 018°05'0 0.0
2016-Nov-30 01:31N 59°19' E 018°05'0 0.0
2016-Nov-30 00:31N 59°19' E 018°05'0 0.0
2016-Nov-29 23:31N 59°19' E 018°05'0 0.0
2016-Nov-29 22:31N 59°19' E 018°05'0 0.0
2016-Nov-29 21:31N 59°19' E 018°05'0 0.0
2016-Nov-29 20:31N 59°19' E 018°05'0 0.0
2016-Nov-29 19:31N 59°19' E 018°05'0 0.0
2016-Nov-29 18:28N 59°19' E 018°05'0 0.0
2016-Nov-29 17:31N 59°19' E 018°05'0 0.0
2016-Nov-29 16:31N 59°19' E 018°05'0 0.0
2016-Nov-29 15:31N 59°19' E 018°05'0 0.0
2016-Nov-29 14:28N 59°19' E 018°05'0 0.0
2016-Nov-29 13:31N 59°19' E 018°05'0 0.4
2016-Nov-29 12:34N 59°19' E 018°06'2 2.0
2016-Nov-29 11:34N 59°19' E 018°10'2 2.4
2016-Nov-29 10:32N 59°19' E 018°05'0 0.0
2016-Nov-29 09:32N 59°19' E 018°05'0 0.0
2016-Nov-29 08:32N 59°19' E 018°05'0 0.0
2016-Nov-29 07:32N 59°19' E 018°05'0 0.0
2016-Nov-29 06:32N 59°19' E 018°05'0 0.0
2016-Nov-29 05:32N 59°19' E 018°05'0 0.0
2016-Nov-29 04:32N 59°19' E 018°05'0 0.0
2016-Nov-29 03:32N 59°19' E 018°05'0 0.0
2016-Nov-29 02:32N 59°19' E 018°05'0 0.0
2016-Nov-29 01:32N 59°19' E 018°05'0 0.0
2016-Nov-29 00:32N 59°19' E 018°05'0 0.0
2016-Nov-28 23:32N 59°19' E 018°05'0 0.0
2016-Nov-28 22:32N 59°19' E 018°05'0 0.0
2016-Nov-28 21:32N 59°19' E 018°05'0 0.0
2016-Nov-28 20:32N 59°19' E 018°05'0 0.0
2016-Nov-28 19:29N 59°19' E 018°05'0 0.0
2016-Nov-28 18:32N 59°19' E 018°05'0 0.0
2016-Nov-28 17:32N 59°19' E 018°05'0 0.0
2016-Nov-28 16:29N 59°19' E 018°05'0 0.0
2016-Nov-28 15:32N 59°19' E 018°05'0 0.0
2016-Nov-28 14:32N 59°19' E 018°05'0 0.0
2016-Nov-28 13:32N 59°19' E 018°05'0 0.0
2016-Nov-28 12:32N 59°19' E 018°05'3 2.6
2016-Nov-28 11:34N 59°19' E 018°10'3 2.6
2016-Nov-28 10:34N 59°19' E 018°05'0 0.0
2016-Nov-28 09:32N 59°19' E 018°05'0 0.0
2016-Nov-28 08:32N 59°19' E 018°05'0 0.0
2016-Nov-28 07:32N 59°19' E 018°05'0 0.0
2016-Nov-28 06:32N 59°19' E 018°05'0 0.0
2016-Nov-28 05:32N 59°19' E 018°05'0 0.0
2016-Nov-28 04:32N 59°19' E 018°05'0 0.0
2016-Nov-28 03:32N 59°19' E 018°05'0 0.0
2016-Nov-28 02:32N 59°19' E 018°05'0 0.0
2016-Nov-28 01:32N 59°19' E 018°05'0 0.0
2016-Nov-28 00:32N 59°19' E 018°05'0 0.0
2016-Nov-27 23:32N 59°19' E 018°05'0 0.0
2016-Nov-27 22:32N 59°19' E 018°05'0 0.0
2016-Nov-27 21:32N 59°19' E 018°05'0 0.0
2016-Nov-27 20:32N 59°19' E 018°05'0 0.0
2016-Nov-27 19:32N 59°19' E 018°05'0 0.0
2016-Nov-27 18:32N 59°19' E 018°05'0 0.0
2016-Nov-27 17:32N 59°19' E 018°05'0 0.0
2016-Nov-27 16:32N 59°19' E 018°05'0 0.0
2016-Nov-27 15:32N 59°19' E 018°05'0 0.0
2016-Nov-27 14:32N 59°19' E 018°05'0 0.3
2016-Nov-27 13:33N 59°19' E 018°06'6 6.1
2016-Nov-27 12:33N 59°22' E 018°16'4 3.8
2016-Nov-27 11:33N 59°19' E 018°11'3 3.0
2016-Nov-27 10:33N 59°19' E 018°05'0 0.0
2016-Nov-27 09:33N 59°19' E 018°05'0 0.0
2016-Nov-27 08:33N 59°19' E 018°05'0 0.0
2016-Nov-27 07:33N 59°19' E 018°05'0 0.0
2016-Nov-27 06:33N 59°19' E 018°05'0 0.0
2016-Nov-27 05:33N 59°19' E 018°05'0 0.0
2016-Nov-27 04:33N 59°19' E 018°05'0 0.0
2016-Nov-27 03:33N 59°19' E 018°05'0 0.0
2016-Nov-27 02:33N 59°19' E 018°05'0 0.0
2016-Nov-27 01:33N 59°19' E 018°05'0 0.0
2016-Nov-27 00:33N 59°19' E 018°05'0 0.0
2016-Nov-26 23:33N 59°19' E 018°05'0 0.0
2016-Nov-26 22:33N 59°19' E 018°05'0 0.0
2016-Nov-26 21:33N 59°19' E 018°05'0 0.0
2016-Nov-26 20:33N 59°19' E 018°05'0 0.0
2016-Nov-26 19:33N 59°19' E 018°05'0 0.0
2016-Nov-26 18:33N 59°19' E 018°05'0 0.0
2016-Nov-26 17:33N 59°19' E 018°05'0 0.0
2016-Nov-26 16:33N 59°19' E 018°05'0 0.0
2016-Nov-26 15:33N 59°19' E 018°05'0 0.0
2016-Nov-26 14:33N 59°19' E 018°05'0 0.3
2016-Nov-26 13:33N 59°19' E 018°05'7 6.9
2016-Nov-26 12:33N 59°23' E 018°17'5 4.6
2016-Nov-26 11:33N 59°19' E 018°11'3 2.9
2016-Nov-26 10:33N 59°19' E 018°05'0 0.0
2016-Nov-26 09:31N 59°19' E 018°05'0 0.0
2016-Nov-26 08:31N 59°19' E 018°05'0 0.0
2016-Nov-26 07:31N 59°19' E 018°05'0 0.0
2016-Nov-26 06:31N 59°19' E 018°05'0 0.0
2016-Nov-26 05:31N 59°19' E 018°05'0 0.0
2016-Nov-26 04:31N 59°19' E 018°05'0 0.0
2016-Nov-26 03:31N 59°19' E 018°05'0 0.0
2016-Nov-26 02:31N 59°19' E 018°05'0 0.0
2016-Nov-26 01:31N 59°19' E 018°05'0 0.0
2016-Nov-26 00:28N 59°19' E 018°05'0 0.0
2016-Nov-25 23:28N 59°19' E 018°05'0 0.0
2016-Nov-25 22:28N 59°19' E 018°05'0 0.0
2016-Nov-25 21:31N 59°19' E 018°05'0 0.0
2016-Nov-25 20:31N 59°19' E 018°05'0 0.0
2016-Nov-25 19:31N 59°19' E 018°05'0 0.0
2016-Nov-25 18:31N 59°19' E 018°05'0 0.0
2016-Nov-25 17:31N 59°19' E 018°05'0 0.0
2016-Nov-25 16:31N 59°19' E 018°05'0 0.0
2016-Nov-25 15:31N 59°19' E 018°05'0 0.0
2016-Nov-25 14:31N 59°19' E 018°05'0 0.0
2016-Nov-25 13:31N 59°19' E 018°05'0 0.0
2016-Nov-25 12:31N 59°19' E 018°05'3 3.1
2016-Nov-25 11:33N 59°19' E 018°11'3 3.0
2016-Nov-25 10:33N 59°19' E 018°05'0 0.0
2016-Nov-25 09:32N 59°19' E 018°05'0 0.0
2016-Nov-25 08:32N 59°19' E 018°05'0 0.0
2016-Nov-25 07:26N 59°19' E 018°05'0 0.0
2016-Nov-25 06:29N 59°19' E 018°05'0 0.0
2016-Nov-25 05:32N 59°19' E 018°05'0 0.0
2016-Nov-25 04:32N 59°19' E 018°05'0 0.0
2016-Nov-25 03:32N 59°19' E 018°05'0 0.0
2016-Nov-25 02:32N 59°19' E 018°05'0 0.0
2016-Nov-25 01:32N 59°19' E 018°05'0 0.0
2016-Nov-25 00:32N 59°19' E 018°05'0 0.0
2016-Nov-24 23:32N 59°19' E 018°05'0 0.0
2016-Nov-24 22:32N 59°19' E 018°05'0 0.0
2016-Nov-24 21:32N 59°19' E 018°05'0 0.0
2016-Nov-24 20:32N 59°19' E 018°05'0 0.0
2016-Nov-24 19:32N 59°19' E 018°05'0 0.0
2016-Nov-24 18:32N 59°19' E 018°05'0 0.0
2016-Nov-24 17:32N 59°19' E 018°05'0 0.0
2016-Nov-24 16:32N 59°19' E 018°05'0 0.0
2016-Nov-24 15:32N 59°19' E 018°05'0 0.0
2016-Nov-24 14:32N 59°19' E 018°05'0 0.0
2016-Nov-24 13:32N 59°19' E 018°05'2 2.1
2016-Nov-24 12:33N 59°19' E 018°09'0 0.5
2016-Nov-24 11:33N 59°20' E 018°10'2 2.4
2016-Nov-24 10:33N 59°19' E 018°05'0 0.0
2016-Nov-24 09:32N 59°19' E 018°05'0 0.0
2016-Nov-24 08:32N 59°19' E 018°05'0 0.0
2016-Nov-24 07:32N 59°19' E 018°05'0 0.0
2016-Nov-24 06:32N 59°19' E 018°05'0 0.0
2016-Nov-24 05:32N 59°19' E 018°05'0 0.0
2016-Nov-24 04:32N 59°19' E 018°05'0 0.0
2016-Nov-24 03:32N 59°19' E 018°05'0 0.0
2016-Nov-24 02:32N 59°19' E 018°05'0 0.0
2016-Nov-24 01:32N 59°19' E 018°05'0 0.0
2016-Nov-24 00:32N 59°19' E 018°05'0 0.0
2016-Nov-23 23:32N 59°19' E 018°05'0 0.0
2016-Nov-23 22:32N 59°19' E 018°05'0 0.0
2016-Nov-23 21:32N 59°19' E 018°05'0 0.0
2016-Nov-23 20:32N 59°19' E 018°05'0 0.0
2016-Nov-23 19:32N 59°19' E 018°05'0 0.0
2016-Nov-23 18:32N 59°19' E 018°05'0 0.0
2016-Nov-23 17:32N 59°19' E 018°05'0 0.0
2016-Nov-23 16:32N 59°19' E 018°05'0 0.0
2016-Nov-23 15:32N 59°19' E 018°05'0 0.0
2016-Nov-23 14:32N 59°19' E 018°05'0 0.0
2016-Nov-23 13:29N 59°19' E 018°05'0 0.0
2016-Nov-23 12:33N 59°19' E 018°05'3 3.1
2016-Nov-23 11:33N 59°20' E 018°11'3 3.0
2016-Nov-23 10:31N 59°19' E 018°05'0 0.0
2016-Nov-23 09:31N 59°19' E 018°05'0 0.0
2016-Nov-23 08:31N 59°19' E 018°05'0 0.0
2016-Nov-23 07:31N 59°19' E 018°05'  
Track history (hours):
 
Tides and Currents Weather Stations Pressure Air Temp Water Temp Dewpoint Dewpoint Depression Visibility Wind Speed Wind Dir Waves Ship Positions

Birger Jarl

Last reported at 2016-Dec-03 06:33 UTC. Time now 2016-Dec-03 06:50 UTC.
Position N 59°19' E 018°05'.

Length 92 m; draft 5.1 m.

Type: Passenger vessel. MMSI: 265878000.

Date/timePositionNaut miles runAvg speedWind from/ knotsBaromVisibWave heightAir tempDewpointWater temp
2016-Dec-03 06:33N 59°19' E 018°05'0 0.0
2016-Dec-03 05:30N 59°19' E 018°05'0 0.0
2016-Dec-03 04:33N 59°19' E 018°05'0 0.0
2016-Dec-03 03:33N 59°19' E 018°05'0 0.0
2016-Dec-03 02:33N 59°19' E 018°05'0 0.0
2016-Dec-03 01:33N 59°19' E 018°05'0 0.0
2016-Dec-03 00:30N 59°19' E 018°05'0 0.0
2016-Dec-02 23:33N 59°19' E 018°05'0 0.0
2016-Dec-02 22:33N 59°19' E 018°05'0 0.0
2016-Dec-02 21:33N 59°19' E 018°05'0 0.0
2016-Dec-02 20:33N 59°19' E 018°05'0 0.0
2016-Dec-02 19:33N 59°19' E 018°05'0 0.0
2016-Dec-02 18:33N 59°19' E 018°05'0 0.0
2016-Dec-02 17:33N 59°19' E 018°05'0 0.0
2016-Dec-02 16:33N 59°19' E 018°05'0 0.0
2016-Dec-02 15:33N 59°19' E 018°05'0 0.0
2016-Dec-02 14:33N 59°19' E 018°05'0 0.0
2016-Dec-02 13:33N 59°19' E 018°05'1 1.1
2016-Dec-02 12:34N 59°19' E 018°07'0 0.4
2016-Dec-02 11:34N 59°19' E 018°08'1 1.5
2016-Dec-02 10:33N 59°19' E 018°05'0 0.0
2016-Dec-02 09:32N 59°19' E 018°05'0 0.0
2016-Dec-02 08:32N 59°19' E 018°05'0 0.0
2016-Dec-02 07:29N 59°19' E 018°05'0 0.0
2016-Dec-02 06:32N 59°19' E 018°05'0 0.0
2016-Dec-02 05:32N 59°19' E 018°05'0 0.0
2016-Dec-02 04:32N 59°19' E 018°05'0 0.0
2016-Dec-02 03:32N 59°19' E 018°05'0 0.0
2016-Dec-02 02:32N 59°19' E 018°05'0 0.0
2016-Dec-02 01:32N 59°19' E 018°05'0 0.0
2016-Dec-02 00:32N 59°19' E 018°05'0 0.0
2016-Dec-01 23:32N 59°19' E 018°05'0 0.0
2016-Dec-01 22:32N 59°19' E 018°05'0 0.0
2016-Dec-01 21:32N 59°19' E 018°05'0 0.0
2016-Dec-01 20:32N 59°19' E 018°05'0 0.0
2016-Dec-01 19:32N 59°19' E 018°05'0 0.0
2016-Dec-01 18:32N 59°19' E 018°05'0 0.0
2016-Dec-01 17:32N 59°19' E 018°05'0 0.0
2016-Dec-01 16:32N 59°19' E 018°05'0 0.0
2016-Dec-01 15:32N 59°19' E 018°05'0 0.0
2016-Dec-01 14:32N 59°19' E 018°05'0 0.0
2016-Dec-01 13:32N 59°19' E 018°05'0 0.2
2016-Dec-01 12:33N 59°19' E 018°05'2 2.1
2016-Dec-01 11:33N 59°19' E 018°09'2 2.3
2016-Dec-01 10:34N 59°19' E 018°05'0 0.0
2016-Dec-01 09:34N 59°19' E 018°05'0 0.0
2016-Dec-01 08:33N 59°19' E 018°05'0 0.0
2016-Dec-01 07:33N 59°19' E 018°05'0 0.0
2016-Dec-01 06:33N 59°19' E 018°05'0 0.0
2016-Dec-01 05:33N 59°19' E 018°05'0 0.0
2016-Dec-01 04:33N 59°19' E 018°05'0 0.0
2016-Dec-01 03:33N 59°19' E 018°05'0 0.0
2016-Dec-01 02:33N 59°19' E 018°05'0 0.0
2016-Dec-01 01:33N 59°19' E 018°05'0 0.0
2016-Dec-01 00:33N 59°19' E 018°05'0 0.0
2016-Nov-30 23:33N 59°19' E 018°05'0 0.0
2016-Nov-30 22:33N 59°19' E 018°05'0 0.0
2016-Nov-30 21:33N 59°19' E 018°05'0 0.0
2016-Nov-30 20:33N 59°19' E 018°05'0 0.0
2016-Nov-30 19:33N 59°19' E 018°05'0 0.0
2016-Nov-30 18:33N 59°19' E 018°05'0 0.0
2016-Nov-30 17:33N 59°19' E 018°05'0 0.0
2016-Nov-30 16:33N 59°19' E 018°05'0 0.0
2016-Nov-30 15:33N 59°19' E 018°05'0 0.0
2016-Nov-30 14:33N 59°19' E 018°05'0 0.0
2016-Nov-30 13:33N 59°19' E 018°05'0 0.1
2016-Nov-30 12:33N 59°19' E 018°05'3 2.7
2016-Nov-30 11:33N 59°19' E 018°10'3 2.8
2016-Nov-30 10:33N 59°19' E 018°05'0 0.0
2016-Nov-30 09:31N 59°19' E 018°05'0 0.0
2016-Nov-30 08:31N 59°19' E 018°05'0 0.0
2016-Nov-30 07:28N 59°19' E 018°05'0 0.0
2016-Nov-30 06:31N 59°19' E 018°05'0 0.0
2016-Nov-30 05:31N 59°19' E 018°05'0 0.0
2016-Nov-30 04:31N 59°19' E 018°05'0 0.0
2016-Nov-30 03:28N 59°19' E 018°05'0 0.0
2016-Nov-30 02:28N 59°19' E 018°05'0 0.0
2016-Nov-30 01:31N 59°19' E 018°05'0 0.0
2016-Nov-30 00:31N 59°19' E 018°05'0 0.0
2016-Nov-29 23:31N 59°19' E 018°05'0 0.0
2016-Nov-29 22:31N 59°19' E 018°05'0 0.0
2016-Nov-29 21:31N 59°19' E 018°05'0 0.0
2016-Nov-29 20:31N 59°19' E 018°05'0 0.0
2016-Nov-29 19:31N 59°19' E 018°05'0 0.0
2016-Nov-29 18:28N 59°19' E 018°05'0 0.0
2016-Nov-29 17:31N 59°19' E 018°05'0 0.0
2016-Nov-29 16:31N 59°19' E 018°05'0 0.0
2016-Nov-29 15:31N 59°19' E 018°05'0 0.0
2016-Nov-29 14:28N 59°19' E 018°05'0 0.0
2016-Nov-29 13:31N 59°19' E 018°05'0 0.4
2016-Nov-29 12:34N 59°19' E 018°06'2 2.0
2016-Nov-29 11:34N 59°19' E 018°10'2 2.4
2016-Nov-29 10:32N 59°19' E 018°05'0 0.0
2016-Nov-29 09:32N 59°19' E 018°05'0 0.0
2016-Nov-29 08:32N 59°19' E 018°05'0 0.0
2016-Nov-29 07:32N 59°19' E 018°05'0 0.0
2016-Nov-29 06:32N 59°19' E 018°05'0 0.0
2016-Nov-29 05:32N 59°19' E 018°05'0 0.0
2016-Nov-29 04:32N 59°19' E 018°05'0 0.0
2016-Nov-29 03:32N 59°19' E 018°05'0 0.0
2016-Nov-29 02:32N 59°19' E 018°05'0 0.0
2016-Nov-29 01:32N 59°19' E 018°05'0 0.0
2016-Nov-29 00:32N 59°19' E 018°05'0 0.0
2016-Nov-28 23:32N 59°19' E 018°05'0 0.0
2016-Nov-28 22:32N 59°19' E 018°05'0 0.0
2016-Nov-28 21:32N 59°19' E 018°05'0 0.0
2016-Nov-28 20:32N 59°19' E 018°05'0 0.0
2016-Nov-28 19:29N 59°19' E 018°05'0 0.0
2016-Nov-28 18:32N 59°19' E 018°05'0 0.0
2016-Nov-28 17:32N 59°19' E 018°05'0 0.0
2016-Nov-28 16:29N 59°19' E 018°05'0 0.0
2016-Nov-28 15:32N 59°19' E 018°05'0 0.0
2016-Nov-28 14:32N 59°19' E 018°05'0 0.0
2016-Nov-28 13:32N 59°19' E 018°05'0 0.0
2016-Nov-28 12:32N 59°19' E 018°05'3 2.6
2016-Nov-28 11:34N 59°19' E 018°10'3 2.6
2016-Nov-28 10:34N 59°19' E 018°05'0 0.0
2016-Nov-28 09:32N 59°19' E 018°05'0 0.0
2016-Nov-28 08:32N 59°19' E 018°05'0 0.0
2016-Nov-28 07:32N 59°19' E 018°05'0 0.0
2016-Nov-28 06:32N 59°19' E 018°05'0 0.0
2016-Nov-28 05:32N 59°19' E 018°05'0 0.0
2016-Nov-28 04:32N 59°19' E 018°05'0 0.0
2016-Nov-28 03:32N 59°19' E 018°05'0 0.0
2016-Nov-28 02:32N 59°19' E 018°05'0 0.0
2016-Nov-28 01:32N 59°19' E 018°05'0 0.0
2016-Nov-28 00:32N 59°19' E 018°05'0 0.0
2016-Nov-27 23:32N 59°19' E 018°05'0 0.0
2016-Nov-27 22:32N 59°19' E 018°05'0 0.0
2016-Nov-27 21:32N 59°19' E 018°05'0 0.0
2016-Nov-27 20:32N 59°19' E 018°05'0 0.0
2016-Nov-27 19:32N 59°19' E 018°05'0 0.0
2016-Nov-27 18:32N 59°19' E 018°05'0 0.0
2016-Nov-27 17:32N 59°19' E 018°05'0 0.0
2016-Nov-27 16:32N 59°19' E 018°05'0 0.0
2016-Nov-27 15:32N 59°19' E 018°05'0 0.0
2016-Nov-27 14:32N 59°19' E 018°05'0 0.3
2016-Nov-27 13:33N 59°19' E 018°06'6 6.1
2016-Nov-27 12:33N 59°22' E 018°16'4 3.8
2016-Nov-27 11:33N 59°19' E 018°11'3 3.0
2016-Nov-27 10:33N 59°19' E 018°05'0 0.0
2016-Nov-27 09:33N 59°19' E 018°05'0 0.0
2016-Nov-27 08:33N 59°19' E 018°05'0 0.0
2016-Nov-27 07:33N 59°19' E 018°05'0 0.0
2016-Nov-27 06:33N 59°19' E 018°05'0 0.0
2016-Nov-27 05:33N 59°19' E 018°05'0 0.0
2016-Nov-27 04:33N 59°19' E 018°05'0 0.0
2016-Nov-27 03:33N 59°19' E 018°05'0 0.0
2016-Nov-27 02:33N 59°19' E 018°05'0 0.0
2016-Nov-27 01:33N 59°19' E 018°05'0 0.0
2016-Nov-27 00:33N 59°19' E 018°05'0 0.0
2016-Nov-26 23:33N 59°19' E 018°05'0 0.0
2016-Nov-26 22:33N 59°19' E 018°05'0 0.0
2016-Nov-26 21:33N 59°19' E 018°05'0 0.0
2016-Nov-26 20:33N 59°19' E 018°05'0 0.0
2016-Nov-26 19:33N 59°19' E 018°05'0 0.0
2016-Nov-26 18:33N 59°19' E 018°05'0 0.0
2016-Nov-26 17:33N 59°19' E 018°05'0 0.0
2016-Nov-26 16:33N 59°19' E 018°05'0 0.0
2016-Nov-26 15:33N 59°19' E 018°05'0 0.0
2016-Nov-26 14:33N 59°19' E 018°05'0 0.3
2016-Nov-26 13:33N 59°19' E 018°05'7 6.9
2016-Nov-26 12:33N 59°23' E 018°17'5 4.6
2016-Nov-26 11:33N 59°19' E 018°11'3 2.9
2016-Nov-26 10:33N 59°19' E 018°05'0 0.0
2016-Nov-26 09:31N 59°19' E 018°05'0 0.0
2016-Nov-26 08:31N 59°19' E 018°05'0 0.0
2016-Nov-26 07:31N 59°19' E 018°05'0 0.0
2016-Nov-26 06:31N 59°19' E 018°05'0 0.0
2016-Nov-26 05:31N 59°19' E 018°05'0 0.0
2016-Nov-26 04:31N 59°19' E 018°05'0 0.0
2016-Nov-26 03:31N 59°19' E 018°05'0 0.0
2016-Nov-26 02:31N 59°19' E 018°05'0 0.0
2016-Nov-26 01:31N 59°19' E 018°05'0 0.0
2016-Nov-26 00:28N 59°19' E 018°05'0 0.0
2016-Nov-25 23:28N 59°19' E 018°05'0 0.0
2016-Nov-25 22:28N 59°19' E 018°05'0 0.0
2016-Nov-25 21:31N 59°19' E 018°05'0 0.0
2016-Nov-25 20:31N 59°19' E 018°05'0 0.0
2016-Nov-25 19:31N 59°19' E 018°05'0 0.0
2016-Nov-25 18:31N 59°19' E 018°05'0 0.0
2016-Nov-25 17:31N 59°19' E 018°05'0 0.0
2016-Nov-25 16:31N 59°19' E 018°05'0 0.0
2016-Nov-25 15:31N 59°19' E 018°05'0 0.0
2016-Nov-25 14:31N 59°19' E 018°05'0 0.0
2016-Nov-25 13:31N 59°19' E 018°05'0 0.0
2016-Nov-25 12:31N 59°19' E 018°05'3 3.1
2016-Nov-25 11:33N 59°19' E 018°11'3 3.0
2016-Nov-25 10:33N 59°19' E 018°05'0 0.0
2016-Nov-25 09:32N 59°19' E 018°05'0 0.0
2016-Nov-25 08:32N 59°19' E 018°05'0 0.0
2016-Nov-25 07:26N 59°19' E 018°05'0 0.0
2016-Nov-25 06:29N 59°19' E 018°05'0 0.0
2016-Nov-25 05:32N 59°19' E 018°05'0 0.0
2016-Nov-25 04:32N 59°19' E 018°05'0 0.0
2016-Nov-25 03:32N 59°19' E 018°05'0 0.0
2016-Nov-25 02:32N 59°19' E 018°05'0 0.0
2016-Nov-25 01:32N 59°19' E 018°05'0 0.0
2016-Nov-25 00:32N 59°19' E 018°05'0 0.0
2016-Nov-24 23:32N 59°19' E 018°05'0 0.0
2016-Nov-24 22:32N 59°19' E 018°05'0 0.0
2016-Nov-24 21:32N 59°19' E 018°05'0 0.0
2016-Nov-24 20:32N 59°19' E 018°05'0 0.0
2016-Nov-24 19:32N 59°19' E 018°05'0 0.0
2016-Nov-24 18:32N 59°19' E 018°05'0 0.0
2016-Nov-24 17:32N 59°19' E 018°05'0 0.0
2016-Nov-24 16:32N 59°19' E 018°05'0 0.0
2016-Nov-24 15:32N 59°19' E 018°05'0 0.0
2016-Nov-24 14:32N 59°19' E 018°05'0 0.0
2016-Nov-24 13:32N 59°19' E 018°05'2 2.1
2016-Nov-24 12:33N 59°19' E 018°09'0 0.5
2016-Nov-24 11:33N 59°20' E 018°10'2 2.4
2016-Nov-24 10:33N 59°19' E 018°05'0 0.0
2016-Nov-24 09:32N 59°19' E 018°05'0 0.0
2016-Nov-24 08:32N 59°19' E 018°05'0 0.0
2016-Nov-24 07:32N 59°19' E 018°05'0 0.0
2016-Nov-24 06:32N 59°19' E 018°05'0 0.0
2016-Nov-24 05:32N 59°19' E 018°05'0 0.0
2016-Nov-24 04:32N 59°19' E 018°05'0 0.0
2016-Nov-24 03:32N 59°19' E 018°05'0 0.0
2016-Nov-24 02:32N 59°19' E 018°05'0 0.0
2016-Nov-24 01:32N 59°19' E 018°05'0 0.0
2016-Nov-24 00:32N 59°19' E 018°05'0 0.0
2016-Nov-23 23:32N 59°19' E 018°05'0 0.0
2016-Nov-23 22:32N 59°19' E 018°05'0 0.0
2016-Nov-23 21:32N 59°19' E 018°05'0 0.0
2016-Nov-23 20:32N 59°19' E 018°05'0 0.0
2016-Nov-23 19:32N 59°19' E 018°05'0 0.0
2016-Nov-23 18:32N 59°19' E 018°05'0 0.0
2016-Nov-23 17:32N 59°19' E 018°05'0 0.0
2016-Nov-23 16:32N 59°19' E 018°05'0 0.0
2016-Nov-23 15:32N 59°19' E 018°05'0 0.0
2016-Nov-23 14:32N 59°19' E 018°05'0 0.0
2016-Nov-23 13:29N 59°19' E 018°05'0 0.0
2016-Nov-23 12:33N 59°19' E 018°05'3 3.1
2016-Nov-23 11:33N 59°20' E 018°11'3 3.0
2016-Nov-23 10:31N 59°19' E 018°05'0 0.0
2016-Nov-23 09:31N 59°19' E 018°05'0 0.0
2016-Nov-23 08:31N 59°19' E 018°05'0 0.0
2016-Nov-23 07:31N 59°19' E 018°05'  

Dump ship's entire track history